Time;durP1;ratioP1;P1;durP2;ratioP2;P2;SDS_P1;SDS_P2;PMS_P1;PMS_P2;Temp;Humidity;BMP_temperature;BMP_pressure;BME280_temperature;BME280_humidity;BME280_pressure;Samples;Min_cycle;Max_cycle;Signal;HPM_P1;HPM_P2
2022/11/01 00:00:11;;;;;;;16.70;7.50;;;;;;;43.28;32.59;101024.81;4952885;29;20412;-73
2022/11/01 00:02:37;;;;;;;16.30;7.90;;;;;;;43.12;32.60;101013.78;4952878;29;20227;-73
2022/11/01 00:05:03;;;;;;;18.60;8.00;;;;;;;42.95;33.03;101011.22;4952981;29;20521;-73
2022/11/01 00:07:29;;;;;;;27.53;9.03;;;;;;;43.04;32.76;101003.75;4952802;29;20841;-73
2022/11/01 00:09:54;;;;;;;23.00;7.90;;;;;;;42.94;33.06;101013.13;4953300;29;20434;-73
2022/11/01 00:12:20;;;;;;;20.60;8.87;;;;;;;42.79;33.66;101003.69;4952925;29;20227;-73
2022/11/01 00:14:46;;;;;;;23.33;9.33;;;;;;;42.72;33.59;100997.94;4955293;28;20258;-73
2022/11/01 00:17:12;;;;;;;17.73;10.20;;;;;;;42.75;33.70;100993.78;4958522;28;20539;-73
2022/11/01 00:19:38;;;;;;;16.10;9.00;;;;;;;42.66;33.30;100991.09;4956613;29;20447;-73
2022/11/01 00:22:04;;;;;;;31.20;9.43;;;;;;;42.85;33.40;100991.41;4956672;29;20419;-73
2022/11/01 00:24:30;;;;;;;11.80;7.30;;;;;;;43.05;32.92;100997.16;4956656;29;20465;-73
2022/11/01 00:26:57;;;;;;;15.43;9.40;;;;;;;43.07;32.93;100998.41;4956526;29;21002;-75
2022/11/01 00:29:23;;;;;;;27.27;9.53;;;;;;;42.92;32.97;100986.19;4956685;29;20459;-75
2022/11/01 00:31:49;;;;;;;25.23;12.60;;;;;;;42.76;33.50;100985.25;4956345;29;20955;-75
2022/11/01 00:34:15;;;;;;;19.20;9.20;;;;;;;42.61;33.64;100985.88;4956372;29;20451;-75
2022/11/01 00:36:41;;;;;;;21.87;9.07;;;;;;;42.91;33.30;100989.28;4956416;29;20518;-74
2022/11/01 00:39:11;;;;;;;19.73;8.00;;;;;;;42.91;33.47;100981.09;4956389;29;20958;-75
2022/11/01 00:41:37;;;;;;;33.10;10.40;;;;;;;42.70;33.64;100980.34;4956276;29;20494;-75
2022/11/01 00:44:03;;;;;;;24.93;6.60;;;;;;;42.75;33.42;100975.47;4956158;29;20467;-74
2022/11/01 00:46:30;;;;;;;16.00;8.20;;;;;;;42.95;33.30;100981.19;4956361;29;20422;-75
2022/11/01 00:48:56;;;;;;;20.10;9.63;;;;;;;42.74;33.24;100979.34;4956130;29;20863;-75
2022/11/01 00:51:22;;;;;;;21.00;8.10;;;;;;;42.97;33.19;100968.81;4956124;29;20434;-75
2022/11/01 00:53:47;;;;;;;14.57;7.30;;;;;;;42.97;32.92;100955.16;4956248;29;20419;-75
2022/11/01 00:56:13;;;;;;;18.60;8.80;;;;;;;42.97;32.81;100966.09;4955910;29;20936;-75
2022/11/01 00:58:39;;;;;;;19.50;8.40;;;;;;;42.98;32.94;100959.50;4957681;28;20772;-75
2022/11/01 01:01:05;;;;;;;29.50;8.43;;;;;;;42.96;32.80;100959.00;4955880;29;20478;-75
2022/11/01 01:03:31;;;;;;;13.83;8.00;;;;;;;43.04;33.01;100958.16;4955817;29;20484;-75
2022/11/01 01:05:57;;;;;;;18.50;8.60;;;;;;;43.02;32.92;100952.22;4956162;29;20852;-75
2022/11/01 01:08:24;;;;;;;23.80;8.10;;;;;;;43.12;32.63;100951.00;4955757;29;20474;-74
2022/11/01 01:10:50;;;;;;;24.60;8.23;;;;;;;42.88;32.82;100951.72;4955809;29;20430;-75
2022/11/01 01:13:16;;;;;;;14.30;8.00;;;;;;;42.96;32.85;100947.28;4957439;28;20415;-75
2022/11/01 01:15:43;;;;;;;16.50;7.13;;;;;;;43.02;32.93;100940.50;4955691;29;20412;-75
2022/11/01 01:18:09;;;;;;;17.70;8.87;;;;;;;42.93;32.90;100943.31;4957343;28;20438;-75
2022/11/01 01:20:35;;;;;;;19.43;8.77;;;;;;;43.09;32.71;100932.53;4955837;29;20419;-75
2022/11/01 01:23:01;;;;;;;22.00;9.70;;;;;;;43.05;32.95;100929.72;4955667;29;20928;-74
2022/11/01 01:25:27;;;;;;;17.50;9.67;;;;;;;43.06;32.86;100928.56;4954175;28;20451;-75
2022/11/01 01:27:54;;;;;;;22.57;9.60;;;;;;;43.16;32.85;100932.81;4955490;29;21034;-75
2022/11/01 01:30:20;;;;;;;20.73;8.00;;;;;;;42.97;32.94;100922.41;4955516;29;20808;-74
2022/11/01 01:32:46;;;;;;;12.27;7.57;;;;;;;43.09;32.57;100927.09;4955363;29;20566;-75
2022/11/01 01:35:12;;;;;;;16.90;7.90;;;;;;;43.24;32.34;100920.16;4955440;29;20422;-75
2022/11/01 01:37:38;;;;;;;21.10;9.13;;;;;;;42.67;32.90;100919.06;4955397;29;20427;-74
2022/11/01 01:40:06;;;;;;;19.37;8.23;;;;;;;42.85;33.00;100912.28;4955906;29;20427;-75
2022/11/01 01:42:39;;;;;;;18.33;6.93;;;;;;;42.70;33.22;100917.59;4956794;28;20897;-75
2022/11/01 01:45:35;;;;;;;13.63;6.87;;;;;;;42.92;32.91;100915.25;4923847;29;21046;-74
2022/11/01 01:48:23;;;;;;;17.50;7.37;;;;;;;42.64;33.29;100915.06;4955188;29;20515;-74
2022/11/01 01:50:57;;;;;;;19.60;8.47;;;;;;;42.86;33.29;100913.06;4955163;29;20840;-73
2022/11/01 01:53:28;;;;;;;19.93;10.07;;;;;;;43.03;32.77;100906.63;4955176;29;20450;-74
2022/11/01 01:56:07;;;;;;;20.73;9.07;;;;;;;42.78;33.35;100905.78;4955102;29;20462;-73
2022/11/01 01:58:56;;;;;;;15.40;7.90;;;;;;;43.01;33.18;100908.91;4954943;29;20430;-73
2022/11/01 02:01:22;;;;;;;21.93;7.13;;;;;;;42.96;32.87;100903.63;4954124;29;20479;-74
2022/11/01 02:03:48;;;;;;;17.83;8.23;;;;;;;42.90;33.07;100895.66;4954800;29;20549;-74
2022/11/01 02:06:17;;;;;;;22.40;9.63;;;;;;;43.09;32.74;100899.78;4954640;29;20451;-74
2022/11/01 02:08:47;;;;;;;16.60;7.43;;;;;;;42.58;33.96;100888.34;4954700;29;20971;-74
2022/11/01 02:11:15;;;;;;;15.30;8.20;;;;;;;42.34;33.99;100889.84;4955095;29;20427;-73
2022/11/01 02:13:41;;;;;;;19.43;8.63;;;;;;;42.16;34.36;100893.88;4954428;29;20426;-74
2022/11/01 02:16:14;;;;;;;19.23;12.03;;;;;;;42.42;34.04;100898.28;4954690;29;20804;-73
2022/11/01 02:18:46;;;;;;;18.60;7.47;;;;;;;42.39;34.04;100891.59;4956127;29;20841;-74
2022/11/01 02:21:28;;;;;;;17.77;10.00;;;;;;;42.38;33.93;100898.97;4954588;29;20881;-73
2022/11/01 02:24:00;;;;;;;17.37;9.70;;;;;;;42.28;34.25;100907.56;4954366;29;20463;-73
2022/11/01 02:26:28;;;;;;;24.30;10.17;;;;;;;42.38;34.15;100909.06;4954302;29;20444;-73
2022/11/01 02:29:24;;;;;;;18.60;11.27;;;;;;;42.39;33.97;100903.28;4954327;29;20566;-73
2022/11/01 02:32:28;;;;;;;15.83;8.73;;;;;;;42.52;33.91;100914.22;4954274;29;20451;-73
2022/11/01 02:35:09;;;;;;;18.30;8.00;;;;;;;42.31;33.74;100919.75;4954260;29;20454;-73
2022/11/01 02:37:58;;;;;;;17.23;9.13;;;;;;;42.41;33.65;100924.75;4954089;28;20945;-73
2022/11/01 02:41:02;;;;;;;37.27;11.73;;;;;;;42.47;33.86;100925.34;4955836;29;20415;-73
2022/11/01 02:43:58;;;;;;;16.07;8.00;;;;;;;42.50;33.51;100925.47;4951031;29;20427;-74
2022/11/01 02:49:37;;;;;;;21.40;9.00;;;;;;;42.53;33.26;100921.25;4922995;28;20435;-73
2022/11/01 02:52:05;;;;;;;19.13;9.03;;;;;;;42.33;33.61;100920.97;4954040;29;20537;-73
2022/11/01 02:54:43;;;;;;;20.63;8.70;;;;;;;42.15;33.98;100924.97;4922440;29;20423;-73
2022/11/01 02:57:29;;;;;;;16.30;9.50;;;;;;;42.34;33.72;100919.06;4953918;29;20455;-73
2022/11/01 03:00:02;;;;;;;15.57;8.43;;;;;;;42.32;33.82;100919.41;4953926;29;20410;-73
2022/11/01 03:02:43;;;;;;;18.33;11.50;;;;;;;42.23;34.20;100920.59;4953649;29;20825;-73
2022/11/01 03:05:21;;;;;;;17.90;8.97;;;;;;;42.19;34.08;100911.53;4938165;29;20564;-73
2022/11/01 03:07:55;;;;;;;19.57;8.57;;;;;;;42.22;33.98;100908.91;4953773;29;20450;-73
2022/11/01 03:10:27;;;;;;;16.77;8.53;;;;;;;42.23;33.72;100915.16;4954077;29;20966;-73
2022/11/01 03:13:16;;;;;;;28.53;10.27;;;;;;;42.20;33.77;100908.44;4953724;29;20691;-73
2022/11/01 03:15:52;;;;;;;24.87;11.33;;;;;;;42.33;33.60;100909.28;4953615;29;20809;-74
2022/11/01 03:18:28;;;;;;;26.10;9.07;;;;;;;42.32;33.77;100915.88;4953595;29;20419;-73
2022/11/01 03:21:14;;;;;;;19.80;9.00;;;;;;;42.09;34.07;100918.13;4953564;29;20422;-73
2022/11/01 03:23:54;;;;;;;14.23;8.37;;;;;;;42.25;34.00;100919.16;4954021;29;20810;-73
2022/11/01 03:26:29;;;;;;;21.00;7.77;;;;;;;42.21;33.91;100914.69;4953478;29;20855;-73
2022/11/01 03:29:00;;;;;;;17.37;9.37;;;;;;;41.97;33.96;100923.53;4937440;29;20526;-73
2022/11/01 03:31:30;;;;;;;40.03;20.53;;;;;;;41.44;34.95;100920.34;4937650;29;20439;-74
2022/11/01 03:34:12;;;;;;;26.03;19.83;;;;;;;41.52;34.62;100924.16;4953217;29;20534;-74
2022/11/01 03:36:44;;;;;;;34.60;19.60;;;;;;;41.10;35.30;100926.72;4953342;29;20423;-74
2022/11/01 03:39:17;;;;;;;38.57;23.90;;;;;;;41.16;35.15;100932.78;4953242;29;20422;-74
2022/11/01 03:41:48;;;;;;;34.93;20.00;;;;;;;40.96;35.75;100940.56;4953244;29;20973;-74
2022/11/01 03:44:14;;;;;;;26.33;20.33;;;;;;;41.16;35.79;100941.75;4953094;29;20903;-74
2022/11/01 03:46:41;;;;;;;34.17;23.73;;;;;;;40.75;35.59;100945.84;4954761;28;20410;-74
2022/11/01 03:49:07;;;;;;;29.60;21.60;;;;;;;40.92;35.80;100936.06;4953897;28;20436;-74
2022/11/01 03:51:33;;;;;;;23.57;19.80;;;;;;;41.29;35.16;100948.88;4953135;29;20427;-73
2022/11/01 03:53:59;;;;;;;40.20;20.77;;;;;;;41.51;34.87;100941.63;4953220;29;20596;-74
2022/11/01 03:56:25;;;;;;;35.97;19.87;;;;;;;41.19;35.00;100943.00;4952951;29;20501;-73
2022/11/01 03:58:50;;;;;;;41.23;23.20;;;;;;;41.31;35.47;100952.09;4953092;29;20463;-74
2022/11/01 04:01:17;;;;;;;34.20;20.00;;;;;;;41.50;35.06;100949.00;4952927;29;20317;-75
2022/11/01 04:03:43;;;;;;;28.87;18.97;;;;;;;41.64;34.45;100961.56;4952822;29;20554;-74
2022/11/01 04:06:10;;;;;;;31.90;20.40;;;;;;;41.23;35.35;100958.34;4952972;29;20453;-75
2022/11/01 04:08:36;;;;;;;23.53;18.40;;;;;;;41.15;34.92;100963.84;4954528;28;20944;-73
2022/11/01 04:11:03;;;;;;;33.60;20.13;;;;;;;41.06;35.56;100961.16;4953000;29;20419;-73
2022/11/01 04:13:29;;;;;;;27.90;20.03;;;;;;;41.09;35.33;100963.22;4952973;29;20446;-73
2022/11/01 04:21:25;;;;;;;34.77;20.33;;;;;;;41.02;35.39;100969.19;4954241;29;20622;-73
2022/11/01 04:23:52;;;;;;;27.50;18.20;;;;;;;40.99;35.42;100971.75;4952709;29;21100;-73
2022/11/01 04:26:20;;;;;;;32.13;18.90;;;;;;;40.91;35.98;100975.28;4954457;28;20780;-73
2022/11/01 04:28:55;;;;;;;50.83;28.27;;;;;;;40.91;35.70;100970.66;4952804;29;20438;-73
2022/11/01 04:31:34;;;;;;;80.93;44.03;;;;;;;40.91;35.60;100980.72;4952887;29;20494;-73
2022/11/01 04:34:01;;;;;;;72.70;40.83;;;;;;;40.84;35.97;100980.41;4952773;29;20430;-73
2022/11/01 04:36:27;;;;;;;57.50;36.30;;;;;;;40.86;35.49;100986.31;4952677;28;20999;-73
2022/11/01 04:38:56;;;;;;;42.60;28.40;;;;;;;40.80;35.67;100983.75;4952830;29;20465;-73
2022/11/01 04:41:23;;;;;;;44.30;23.57;;;;;;;40.78;35.99;100987.94;4954295;28;20420;-73
2022/11/01 04:43:52;;;;;;;31.87;22.30;;;;;;;40.42;36.24;100990.97;4952534;29;20474;-74
2022/11/01 04:46:18;;;;;;;34.13;24.33;;;;;;;40.00;37.29;100996.03;4952650;29;20430;-73
2022/11/01 04:48:44;;;;;;;35.23;21.20;;;;;;;40.37;36.76;101005.53;4952632;29;20439;-73
2022/11/01 04:51:11;;;;;;;28.80;19.27;;;;;;;40.07;37.26;100999.09;4952756;29;20812;-73
2022/11/01 04:53:37;;;;;;;27.40;18.50;;;;;;;40.33;36.47;100995.59;4954518;28;20246;-73
2022/11/01 04:56:04;;;;;;;27.33;19.60;;;;;;;40.64;36.28;101000.91;4952531;29;20430;-74
2022/11/01 04:58:32;;;;;;;37.73;21.20;;;;;;;40.33;36.55;101010.03;4952563;29;20811;-73
2022/11/01 05:00:58;;;;;;;33.63;21.70;;;;;;;40.50;36.46;101014.66;4958047;28;21038;-73
2022/11/01 05:03:24;;;;;;;43.97;22.57;;;;;;;40.37;36.80;101015.59;4959211;28;20422;-73
2022/11/01 05:05:49;;;;;;;35.07;20.60;;;;;;;40.13;37.09;101011.44;4959174;28;20512;-73
2022/11/01 05:08:16;;;;;;;39.00;24.60;;;;;;;40.39;36.48;101016.06;4959154;28;20418;-73
2022/11/01 05:10:43;;;;;;;44.27;24.50;;;;;;;40.40;36.54;101017.69;4959076;28;20462;-73
2022/11/01 05:13:11;;;;;;;29.03;20.43;;;;;;;40.48;36.19;101014.19;4943337;28;20518;-73
2022/11/01 05:15:37;;;;;;;36.63;20.77;;;;;;;39.86;37.70;101017.13;4976669;28;20774;-73
2022/11/01 05:18:03;;;;;;;34.53;18.43;;;;;;;40.12;36.89;101009.84;4959143;28;20434;-73
2022/11/01 05:20:30;;;;;;;20.97;16.00;;;;;;;40.41;36.84;101017.38;4943300;28;20513;-73
2022/11/01 05:23:00;;;;;;;26.43;18.20;;;;;;;40.66;36.30;101013.06;4942927;28;20500;-73
2022/11/01 05:25:27;;;;;;;25.20;17.80;;;;;;;40.02;36.42;101013.63;4958755;28;20458;-73
2022/11/01 05:28:09;;;;;;;25.57;17.23;;;;;;;40.37;36.96;101021.03;4976418;28;20818;-73
2022/11/01 05:30:36;;;;;;;30.43;18.00;;;;;;;40.39;36.62;101024.22;4958767;28;20990;-73
2022/11/01 05:33:04;;;;;;;27.63;16.60;;;;;;;40.57;36.25;101031.28;4927091;28;20414;-73
2022/11/01 05:35:30;;;;;;;30.03;16.23;;;;;;;40.47;36.32;101034.31;4958690;28;20414;-73
2022/11/01 05:37:56;;;;;;;31.00;18.20;;;;;;;40.33;36.42;101036.38;4958587;28;20429;-73
2022/11/01 05:40:24;;;;;;;42.10;17.53;;;;;;;40.40;36.40;101042.97;4975981;28;20470;-73
2022/11/01 05:42:50;;;;;;;42.63;22.00;;;;;;;39.95;36.86;101040.44;4974477;28;20469;-73
2022/11/01 05:45:16;;;;;;;25.90;16.87;;;;;;;39.80;37.01;101040.09;4957041;28;20461;-74
2022/11/01 05:47:42;;;;;;;24.50;17.90;;;;;;;39.55;37.59;101049.72;4958309;28;20422;-73
2022/11/01 05:50:14;;;;;;;25.47;18.70;;;;;;;40.14;36.61;101040.19;4958236;28;20437;-73
2022/11/01 05:52:41;;;;;;;29.60;15.70;;;;;;;40.17;36.49;101050.44;4955948;28;20529;-72
2022/11/01 05:55:08;;;;;;;24.40;16.47;;;;;;;40.36;36.59;101043.91;4957324;28;20460;-73
2022/11/01 05:57:34;;;;;;;31.23;18.20;;;;;;;40.33;36.30;101047.25;4954821;29;20439;-76
2022/11/01 06:00:00;;;;;;;27.07;20.03;;;;;;;40.38;36.34;101057.97;4951762;28;20868;-77
2022/11/01 06:02:29;;;;;;;32.57;18.90;;;;;;;40.34;36.33;101054.31;4954216;28;20475;-77
2022/11/01 06:04:55;;;;;;;32.80;19.10;;;;;;;40.51;36.30;101059.75;4956031;28;20513;-69
2022/11/01 06:07:21;;;;;;;28.50;19.83;;;;;;;40.33;36.26;101052.69;4942952;28;20467;-72
2022/11/01 06:09:47;;;;;;;23.20;17.47;;;;;;;40.65;35.69;101054.19;4946206;28;20526;-73
2022/11/01 06:12:13;;;;;;;26.70;18.27;;;;;;;40.75;35.54;101059.28;4953246;28;20587;-73
2022/11/01 06:14:39;;;;;;;33.23;19.10;;;;;;;40.63;35.92;101056.41;4951791;28;20195;-73
2022/11/01 06:17:05;;;;;;;41.40;24.10;;;;;;;40.70;35.81;101062.16;4951942;29;20444;-72
2022/11/01 06:19:31;;;;;;;34.07;18.07;;;;;;;40.19;36.37;101066.44;4953640;28;20454;-71
2022/11/01 06:21:57;;;;;;;28.63;19.63;;;;;;;40.32;36.42;101073.63;4959873;28;20208;-72
2022/11/01 06:24:23;;;;;;;45.10;17.77;;;;;;;40.13;36.46;101071.22;4945697;28;20203;-72
2022/11/01 06:26:49;;;;;;;27.60;17.20;;;;;;;40.40;36.41;101072.06;4954305;28;20495;-72
2022/11/01 06:29:16;;;;;;;30.73;18.20;;;;;;;40.77;35.54;101082.34;4962731;28;20217;-72
2022/11/01 06:31:42;;;;;;;24.10;20.70;;;;;;;40.37;36.45;101078.91;4956159;28;20176;-72
2022/11/01 06:34:08;;;;;;;28.57;19.57;;;;;;;40.79;35.87;101080.09;4979265;28;20448;-72
2022/11/01 06:36:34;;;;;;;27.90;21.70;;;;;;;40.71;35.96;101090.97;4958664;28;20206;-72
2022/11/01 06:39:00;;;;;;;43.37;24.20;;;;;;;40.99;35.93;101096.91;4964771;28;20187;-71
2022/11/01 06:41:26;;;;;;;39.50;24.30;;;;;;;40.83;36.13;101101.22;4965180;28;20939;-72
2022/11/01 06:43:52;;;;;;;43.03;23.57;;;;;;;40.99;35.85;101107.78;4956243;28;20208;-72
2022/11/01 06:46:18;;;;;;;38.40;25.60;;;;;;;41.23;34.86;101099.91;4969685;28;20186;-73
2022/11/01 06:48:47;;;;;;;43.63;23.33;;;;;;;40.65;36.03;101103.13;4942642;28;20442;-72
2022/11/01 06:51:13;;;;;;;33.73;21.10;;;;;;;40.83;35.56;101104.75;4933506;29;20195;-70
2022/11/01 06:53:39;;;;;;;34.40;23.43;;;;;;;41.05;35.49;101106.50;4940206;29;20431;-70
2022/11/01 06:56:05;;;;;;;44.83;25.40;;;;;;;41.22;35.32;101103.75;4954761;28;20438;-73
2022/11/01 06:58:31;;;;;;;41.63;21.40;;;;;;;41.10;35.42;101116.41;4953610;28;20222;-74
2022/11/01 07:00:59;;;;;;;29.53;23.77;;;;;;;41.25;35.54;101119.44;4953431;28;20431;-71
2022/11/01 07:03:26;;;;;;;40.97;22.80;;;;;;;41.15;36.03;101119.78;4955534;28;20800;-72
2022/11/01 07:05:52;;;;;;;39.70;25.40;;;;;;;40.98;36.31;101125.22;4955179;28;20465;-69
2022/11/01 07:08:18;;;;;;;36.47;27.50;;;;;;;41.20;35.95;101129.69;4974197;28;20472;-69
2022/11/01 07:10:44;;;;;;;38.57;26.43;;;;;;;41.47;35.52;101137.50;4974222;28;20426;-70
2022/11/01 07:13:12;;;;;;;38.00;27.40;;;;;;;41.51;35.16;101146.63;4979226;28;20411;-69
2022/11/01 07:15:38;;;;;;;37.00;23.53;;;;;;;41.64;34.99;101153.00;4976784;28;20773;-68
2022/11/01 07:18:07;;;;;;;45.13;25.57;;;;;;;41.56;35.08;101153.84;4976423;28;20411;-68
2022/11/01 07:20:42;;;;;;;38.13;24.47;;;;;;;41.19;35.50;101149.84;4937549;29;20485;-73
2022/11/01 07:23:12;;;;;;;37.70;26.40;;;;;;;40.97;36.03;101156.28;4937380;28;20431;-67
2022/11/01 07:25:38;;;;;;;47.43;20.73;;;;;;;40.91;36.27;101163.00;4935087;28;20465;-67
2022/11/01 07:28:04;;;;;;;35.03;22.30;;;;;;;40.64;36.71;101170.31;4940359;28;20410;-70
2022/11/01 07:30:30;;;;;;;42.13;22.50;;;;;;;40.81;36.46;101180.41;4968491;28;20798;-70
2022/11/01 07:33:02;;;;;;;37.43;22.70;;;;;;;41.21;35.68;101178.38;4965519;28;20442;-70
2022/11/01 07:35:28;;;;;;;30.30;20.20;;;;;;;41.27;35.75;101185.25;4952379;28;20442;-74
2022/11/01 07:37:59;;;;;;;30.70;23.07;;;;;;;41.25;35.66;101178.50;4936938;29;20418;-70
2022/11/01 07:40:29;;;;;;;33.63;22.73;;;;;;;41.37;35.48;101188.78;4964073;28;20426;-72
2022/11/01 07:42:59;;;;;;;30.20;25.70;;;;;;;41.52;35.26;101185.56;4958888;28;20512;-72
2022/11/01 07:45:28;;;;;;;38.97;21.40;;;;;;;41.47;35.45;101183.00;4974453;28;20454;-68
2022/11/01 07:48:01;;;;;;;27.17;20.97;;;;;;;41.40;35.72;101188.16;4938447;28;20438;-69
2022/11/01 07:50:28;;;;;;;27.87;19.80;;;;;;;41.45;35.25;101185.25;4947918;28;20476;-70
2022/11/01 07:53:09;;;;;;;25.90;20.70;;;;;;;41.53;35.09;101192.59;4931449;28;20411;-70
2022/11/01 07:55:38;;;;;;;33.97;20.13;;;;;;;41.64;34.99;101182.97;4960072;28;20936;-69
2022/11/01 07:58:06;;;;;;;30.20;19.57;;;;;;;41.90;34.42;101171.22;4962175;28;20464;-73
2022/11/01 08:00:33;;;;;;;36.90;20.67;;;;;;;42.03;34.70;101175.63;4962373;28;20433;-70
2022/11/01 08:03:11;;;;;;;30.93;18.57;;;;;;;42.05;34.75;101179.66;4943842;28;20464;-78
2022/11/01 08:05:38;;;;;;;31.33;20.40;;;;;;;42.28;34.32;101174.75;4953449;28;20498;-73
2022/11/01 08:08:05;;;;;;;28.50;19.67;;;;;;;42.45;34.13;101171.13;4952339;29;20431;-72
2022/11/01 08:10:32;;;;;;;32.93;24.30;;;;;;;42.54;33.98;101171.88;4952395;28;20819;-73
2022/11/01 08:13:04;;;;;;;40.87;25.10;;;;;;;42.67;33.87;101180.16;4953893;28;20415;-73
2022/11/01 08:15:31;;;;;;;36.70;22.00;;;;;;;42.78;33.68;101182.13;4951542;28;20808;-73
2022/11/01 08:17:57;;;;;;;37.30;18.10;;;;;;;42.61;33.39;101176.84;4952556;29;20442;-75
2022/11/01 08:20:25;;;;;;;26.80;15.33;;;;;;;42.73;33.48;101189.75;4953787;28;20423;-73
2022/11/01 08:22:52;;;;;;;29.20;15.53;;;;;;;42.75;33.47;101185.53;4951621;28;20458;-73
2022/11/01 08:25:17;;;;;;;23.37;14.87;;;;;;;42.86;33.15;101178.56;4958485;28;20855;-71
2022/11/01 08:27:44;;;;;;;28.30;15.00;;;;;;;42.92;32.96;101187.34;4953824;28;20436;-72
2022/11/01 08:30:11;;;;;;;24.80;14.40;;;;;;;42.95;33.23;101180.41;4961126;28;20856;-73
2022/11/01 08:32:37;;;;;;;26.60;14.47;;;;;;;42.88;33.34;101191.88;4959150;28;20422;-73
2022/11/01 08:35:03;;;;;;;21.20;14.90;;;;;;;42.86;33.25;101192.22;4959869;28;20806;-73
2022/11/01 08:37:29;;;;;;;28.07;13.73;;;;;;;42.84;33.26;101196.38;4966470;28;20927;-73
2022/11/01 08:39:55;;;;;;;30.23;14.53;;;;;;;42.86;33.34;101205.84;4964397;28;20411;-71
2022/11/01 08:42:21;;;;;;;21.93;12.43;;;;;;;42.81;33.08;101211.50;4966275;28;20191;-71
2022/11/01 08:44:46;;;;;;;22.57;14.20;;;;;;;42.87;33.28;101207.44;4960743;28;20478;-71
2022/11/01 08:47:12;;;;;;;24.73;12.50;;;;;;;42.99;33.24;101205.94;4940456;29;20206;-71
2022/11/01 08:49:38;;;;;;;21.37;12.30;;;;;;;42.86;33.39;101200.41;4956079;28;20986;-71
2022/11/01 08:52:05;;;;;;;17.23;11.53;;;;;;;42.65;33.62;101196.84;4955900;29;20187;-71
2022/11/01 08:54:32;;;;;;;23.53;11.60;;;;;;;42.84;33.20;101199.91;4955323;29;20450;-71
2022/11/01 08:56:57;;;;;;;21.83;12.20;;;;;;;42.75;33.78;101196.47;4956745;28;20423;-71
2022/11/01 08:59:23;;;;;;;23.73;10.10;;;;;;;42.92;33.54;101199.06;4957413;28;20517;-71
2022/11/01 09:01:49;;;;;;;20.87;9.67;;;;;;;42.50;34.00;101194.69;4955563;28;20235;-70
2022/11/01 09:04:16;;;;;;;24.20;10.33;;;;;;;42.74;33.71;101191.34;4954977;28;20274;-71
2022/11/01 09:06:45;;;;;;;18.57;9.23;;;;;;;42.95;33.55;101194.06;4956952;28;20457;-71
2022/11/01 09:09:11;;;;;;;24.10;13.20;;;;;;;43.07;32.98;101196.88;4958374;28;20438;-72
2022/11/01 09:11:37;;;;;;;27.57;12.57;;;;;;;42.85;33.39;101207.00;4958964;28;20546;-72
2022/11/01 09:14:03;;;;;;;21.83;11.83;;;;;;;42.99;33.57;101203.22;4955373;28;20403;-72
2022/11/01 09:16:29;;;;;;;20.00;10.80;;;;;;;43.13;33.13;101192.81;4939083;29;20517;-73
2022/11/01 09:19:00;;;;;;;20.30;12.90;;;;;;;43.28;33.03;101186.75;4963342;28;20430;-72
2022/11/01 09:21:28;;;;;;;17.57;11.30;;;;;;;43.43;33.09;101196.25;4937113;29;20574;-73
2022/11/01 09:23:54;;;;;;;22.97;11.80;;;;;;;43.19;33.17;101191.47;4944628;29;20458;-72
2022/11/01 09:26:20;;;;;;;29.10;12.40;;;;;;;42.97;33.89;101197.25;4956267;28;20491;-73
2022/11/01 09:28:46;;;;;;;27.37;12.73;;;;;;;43.06;33.44;101198.00;4960955;28;20442;-73
2022/11/01 09:31:12;;;;;;;19.30;10.83;;;;;;;43.14;33.30;101195.19;4958326;28;20503;-73
2022/11/01 09:33:38;;;;;;;20.37;12.00;;;;;;;43.04;33.05;101200.28;4955058;28;20190;-73
2022/11/01 09:36:05;;;;;;;21.20;10.90;;;;;;;42.95;33.37;101196.78;4956180;28;20427;-71
2022/11/01 09:38:30;;;;;;;23.30;12.13;;;;;;;43.05;33.43;101201.88;4964575;28;20426;-71
2022/11/01 09:41:22;;;;;;;24.23;11.03;;;;;;;43.04;33.61;101195.63;4956657;28;20807;-72
2022/11/01 09:43:50;;;;;;;22.80;10.57;;;;;;;42.97;33.61;101189.88;4930389;28;20471;-75
2022/11/01 09:46:21;;;;;;;21.97;12.20;;;;;;;42.98;33.54;101194.22;4957976;28;20440;-72
2022/11/01 09:48:48;;;;;;;22.70;10.30;;;;;;;43.15;33.35;101185.88;4947306;28;20991;-72
2022/11/01 09:51:20;;;;;;;23.23;10.93;;;;;;;42.97;33.55;101184.44;4959343;28;20506;-71
2022/11/01 09:53:48;;;;;;;18.30;11.33;;;;;;;42.93;33.58;101189.75;4954922;29;21023;-72
2022/11/01 09:56:27;;;;;;;18.40;11.70;;;;;;;43.23;33.30;101192.41;4942987;28;20450;-71
2022/11/01 09:59:20;;;;;;;21.70;10.40;;;;;;;43.30;33.26;101172.75;4939944;28;20957;-73
2022/11/01 10:02:10;;;;;;;26.83;12.00;;;;;;;43.37;33.12;101181.97;4952764;28;20482;-75
2022/11/01 10:04:39;;;;;;;34.53;11.50;;;;;;;43.23;33.27;101177.97;4978562;28;20482;-73
2022/11/01 10:07:04;;;;;;;21.30;11.37;;;;;;;43.32;33.23;101174.00;4965329;28;20549;-77
2022/11/01 10:09:51;;;;;;;28.57;10.87;;;;;;;42.91;33.70;101164.72;4962474;28;20525;-74
2022/11/01 10:12:37;;;;;;;23.80;11.07;;;;;;;42.72;33.76;101166.31;4950488;28;20196;-75
2022/11/01 10:15:24;;;;;;;25.13;11.47;;;;;;;43.00;33.90;101172.06;4962428;28;20961;-75
2022/11/01 10:17:53;;;;;;;28.17;13.20;;;;;;;42.72;34.30;101167.09;4962790;28;20474;-74
2022/11/01 10:20:26;;;;;;;30.13;13.40;;;;;;;43.04;33.48;101165.59;4956528;28;20791;-74
2022/11/01 10:22:52;;;;;;;21.07;12.03;;;;;;;43.22;33.37;101159.94;4968262;28;20454;-75
2022/11/01 10:25:28;;;;;;;23.27;12.80;;;;;;;43.23;33.14;101159.63;4973673;28;20838;-77
2022/11/01 10:28:30;;;;;;;24.60;13.77;;;;;;;43.21;33.26;101155.63;4962787;28;20541;-74
2022/11/01 10:31:02;;;;;;;25.90;12.67;;;;;;;43.00;33.38;101159.19;4965178;28;20796;-74
2022/11/01 10:33:55;;;;;;;28.00;12.17;;;;;;;43.19;33.66;101161.44;4958679;28;21068;-75
2022/11/01 10:36:28;;;;;;;25.03;9.63;;;;;;;42.69;33.88;101151.41;4935043;29;20535;-74
2022/11/01 10:39:01;;;;;;;17.43;10.20;;;;;;;43.15;33.77;101147.66;4936390;29;20408;-77
2022/11/01 10:41:42;;;;;;;14.50;10.63;;;;;;;43.01;33.88;101157.28;4951385;28;20466;-75
2022/11/01 10:44:32;;;;;;;23.70;13.30;;;;;;;42.79;34.18;101145.56;4953446;29;20553;-76
2022/11/01 10:47:07;;;;;;;24.43;12.07;;;;;;;42.94;33.62;101149.59;4954165;29;20514;-74
2022/11/01 10:49:46;;;;;;;19.40;11.10;;;;;;;42.93;33.69;101148.00;4955344;28;20394;-74
2022/11/01 10:52:18;;;;;;;23.00;11.17;;;;;;;43.09;33.62;101149.00;4953985;29;20419;-74
2022/11/01 10:54:45;;;;;;;30.87;12.87;;;;;;;42.99;33.76;101133.06;4957740;28;20413;-74
2022/11/01 10:57:29;;;;;;;22.63;13.27;;;;;;;42.99;33.51;101135.78;4973060;28;20424;-75
2022/11/01 10:59:58;;;;;;;16.60;11.00;;;;;;;43.14;33.30;101134.34;4972480;28;20442;-75
2022/11/01 11:02:31;;;;;;;25.07;8.70;;;;;;;43.12;33.09;101125.69;4964734;28;20455;-74
2022/11/01 11:04:57;;;;;;;33.33;12.93;;;;;;;43.32;33.56;101129.50;4954870;28;20466;-73
2022/11/01 11:07:28;;;;;;;19.10;12.50;;;;;;;43.34;33.11;101127.22;4953790;29;20423;-74
2022/11/01 11:09:54;;;;;;;18.67;12.90;;;;;;;43.43;33.21;101131.50;4961905;28;20515;-74
2022/11/01 11:12:23;;;;;;;23.20;12.70;;;;;;;43.26;33.43;101131.66;4961084;28;20446;-75
2022/11/01 11:14:56;;;;;;;27.17;12.60;;;;;;;43.28;33.51;101132.13;4934884;29;20439;-77
2022/11/01 11:17:36;;;;;;;24.77;12.57;;;;;;;43.58;33.13;101129.22;4960662;28;20820;-73
2022/11/01 11:20:09;;;;;;;33.50;12.30;;;;;;;43.08;33.90;101119.31;4949699;28;20777;-73
2022/11/01 11:22:41;;;;;;;19.00;11.50;;;;;;;43.35;33.29;101129.63;4959571;28;20421;-74
2022/11/01 11:25:20;;;;;;;24.20;11.20;;;;;;;43.48;32.97;101124.22;4962272;28;20898;-71
2022/11/01 11:27:55;;;;;;;34.60;14.60;;;;;;;43.49;33.40;101117.63;4972134;28;20450;-71
2022/11/01 11:30:34;;;;;;;28.30;13.10;;;;;;;43.14;33.35;101113.28;4972588;28;20484;-71
2022/11/01 11:33:03;;;;;;;30.40;13.20;;;;;;;43.39;33.08;101103.25;4972484;28;20869;-71